Time;durP1;ratioP1;P1;durP2;ratioP2;P2;SDS_P1;SDS_P2;PMS_P1;PMS_P2;Temp;Humidity;BMP_temperature;BMP_pressure;BME280_temperature;BME280_humidity;BME280_pressure;Samples;Min_cycle;Max_cycle;Signal;HPM_P1;HPM_P2
2023/04/20 00:00:01;;;;;;;16.50;7.35;;;;;;;10.56;38.46;149946.41;5059354;28;20032;-67
2023/04/20 00:02:26;;;;;;;16.42;7.57;;;;;;;10.49;38.88;149929.78;5045602;28;20278;-66
2023/04/20 00:04:52;;;;;;;13.68;7.45;;;;;;;10.48;39.35;149927.19;5045738;28;20029;-67
2023/04/20 00:07:18;;;;;;;10.05;6.43;;;;;;;10.41;38.09;149910.50;5062149;28;20024;-68
2023/04/20 00:09:44;;;;;;;18.98;8.18;;;;;;;10.36;37.96;149898.97;5053584;28;20097;-66
2023/04/20 00:12:10;;;;;;;16.38;7.03;;;;;;;10.37;39.11;149900.25;5045281;28;20091;-67
2023/04/20 00:14:36;;;;;;;10.88;6.78;;;;;;;10.35;37.98;149896.41;5048028;28;20091;-67
2023/04/20 00:17:01;;;;;;;14.13;7.43;;;;;;;10.29;38.46;149879.66;5065299;28;20025;-67
2023/04/20 00:19:31;;;;;;;21.40;7.32;;;;;;;10.34;38.66;149892.56;5047456;28;20048;-66
2023/04/20 00:21:57;;;;;;;19.27;6.97;;;;;;;10.37;38.34;149900.25;5058979;28;20079;-66
2023/04/20 00:24:23;;;;;;;12.20;6.18;;;;;;;10.35;37.62;149896.41;5055347;28;20026;-66
2023/04/20 00:26:49;;;;;;;16.23;7.32;;;;;;;10.29;39.01;149881.00;5049412;28;20056;-66
2023/04/20 00:29:14;;;;;;;13.85;7.47;;;;;;;10.27;38.26;149874.56;5065169;28;20040;-66
2023/04/20 00:31:40;;;;;;;14.60;6.55;;;;;;;10.24;38.45;149866.88;5052403;28;20297;-66
2023/04/20 00:34:05;;;;;;;13.98;6.78;;;;;;;10.21;38.48;149859.19;5049980;28;20036;-65
2023/04/20 00:36:31;;;;;;;12.95;6.82;;;;;;;10.17;39.28;149850.19;5045185;28;20022;-65
2023/04/20 00:38:57;;;;;;;16.50;7.43;;;;;;;10.12;38.85;149838.69;5044798;28;20214;-64
2023/04/20 00:41:23;;;;;;;11.95;6.60;;;;;;;10.10;38.72;149833.53;5045472;28;20033;-65
2023/04/20 00:43:51;;;;;;;13.00;6.55;;;;;;;10.06;38.63;149822.00;5064925;28;20104;-65
2023/04/20 00:46:17;;;;;;;16.38;6.80;;;;;;;10.03;38.72;149815.56;5048479;28;20072;-65
2023/04/20 00:48:43;;;;;;;13.35;6.95;;;;;;;10.04;39.63;149818.16;5056670;28;20029;-65
2023/04/20 00:51:09;;;;;;;16.33;6.72;;;;;;;10.02;39.65;149813.03;5056793;28;20288;-65
2023/04/20 00:53:35;;;;;;;11.27;6.03;;;;;;;10.04;39.97;149818.16;5046520;28;20087;-66
2023/04/20 00:56:01;;;;;;;13.40;6.85;;;;;;;10.01;38.75;149810.47;5064672;28;20060;-67
2023/04/20 00:58:27;;;;;;;12.60;6.57;;;;;;;10.01;39.20;149810.47;5046873;28;20241;-65
2023/04/20 01:00:53;;;;;;;10.40;6.10;;;;;;;9.97;38.57;149801.47;5057172;28;20029;-66
2023/04/20 01:03:19;;;;;;;14.32;6.53;;;;;;;9.90;39.89;149782.28;5056313;28;20218;-65
2023/04/20 01:05:45;;;;;;;8.77;6.05;;;;;;;9.89;37.90;149779.69;5048086;28;20033;-64
2023/04/20 01:08:10;;;;;;;10.07;6.70;;;;;;;9.82;39.15;149763.06;5063299;28;20040;-66
2023/04/20 01:10:36;;;;;;;9.20;5.55;;;;;;;9.75;38.95;149745.06;5045920;28;20044;-65
2023/04/20 01:13:02;;;;;;;12.05;6.03;;;;;;;9.73;38.72;149741.22;5058090;28;20033;-65
2023/04/20 01:15:28;;;;;;;8.68;5.95;;;;;;;9.75;39.23;149746.38;5055308;28;20326;-64
2023/04/20 01:17:53;;;;;;;10.68;6.15;;;;;;;9.78;38.23;149754.06;5043046;28;20033;-66
2023/04/20 01:20:22;;;;;;;12.50;6.78;;;;;;;9.73;39.29;149739.97;5044233;28;20093;-64
2023/04/20 01:22:53;;;;;;;10.07;5.72;;;;;;;9.72;39.18;149737.38;5044147;28;20365;-65
2023/04/20 01:25:19;;;;;;;14.30;7.20;;;;;;;9.62;39.12;149714.34;5060258;28;20048;-67
2023/04/20 01:27:45;;;;;;;13.88;5.97;;;;;;;9.62;38.78;149713.03;5052513;28;20305;-66
2023/04/20 01:30:12;;;;;;;8.68;6.30;;;;;;;9.64;39.44;149719.44;5050647;28;20033;-66
2023/04/20 01:32:38;;;;;;;12.73;6.93;;;;;;;9.65;40.42;149722.03;5051085;28;20091;-66
2023/04/20 01:35:04;;;;;;;12.55;6.75;;;;;;;9.60;39.34;149709.19;5051223;28;20021;-65
2023/04/20 01:37:30;;;;;;;11.98;6.57;;;;;;;9.61;40.42;149711.78;5044003;28;20021;-64
2023/04/20 01:39:56;;;;;;;11.85;6.47;;;;;;;9.57;39.47;149701.50;5056474;28;20202;-65
2023/04/20 01:42:22;;;;;;;10.63;6.43;;;;;;;9.55;40.75;149695.09;5074883;28;20036;-65
2023/04/20 01:44:48;;;;;;;13.38;7.07;;;;;;;9.53;39.90;149690.00;5060547;28;20038;-65
2023/04/20 01:47:14;;;;;;;11.90;6.40;;;;;;;9.53;41.02;149690.00;5025904;28;20044;-65
2023/04/20 01:49:39;;;;;;;13.40;6.93;;;;;;;9.52;40.09;149687.41;5062608;28;20190;-65
2023/04/20 01:52:06;;;;;;;13.13;7.00;;;;;;;9.50;40.66;149683.56;5049278;28;20302;-65
2023/04/20 01:54:31;;;;;;;12.55;6.80;;;;;;;9.52;41.49;149687.41;5052787;28;20033;-65
2023/04/20 01:56:57;;;;;;;11.27;6.82;;;;;;;9.40;40.77;149659.22;5058488;28;20332;-64
2023/04/20 01:59:23;;;;;;;15.85;7.57;;;;;;;9.38;41.54;149652.81;5043379;28;20048;-64
2023/04/20 02:01:48;;;;;;;8.35;5.72;;;;;;;9.34;41.19;149643.88;5043556;28;20025;-64
2023/04/20 02:04:14;;;;;;;14.77;7.22;;;;;;;9.19;41.24;149605.44;5058392;28;20122;-65
2023/04/20 02:06:40;;;;;;;11.90;6.15;;;;;;;9.12;40.97;149590.06;5053141;28;20259;-65
2023/04/20 02:09:07;;;;;;;13.30;6.45;;;;;;;9.05;41.44;149572.13;5048773;28;20025;-64
2023/04/20 02:11:33;;;;;;;17.27;6.95;;;;;;;9.00;42.31;149559.31;5062219;28;20032;-66
2023/04/20 02:13:59;;;;;;;12.05;7.10;;;;;;;8.96;41.95;149549.06;5041687;28;20051;-65
2023/04/20 02:16:24;;;;;;;14.70;6.70;;;;;;;9.00;42.34;149559.31;5058952;28;20028;-67
2023/04/20 02:18:50;;;;;;;10.25;6.60;;;;;;;9.09;41.73;149582.41;5062993;28;20029;-64
2023/04/20 02:21:16;;;;;;;10.10;6.22;;;;;;;9.05;42.14;149572.13;5056117;28;20111;-64
2023/04/20 02:23:41;;;;;;;13.35;6.45;;;;;;;9.00;42.10;149558.03;5043239;28;20117;-64
2023/04/20 02:26:07;;;;;;;13.07;6.50;;;;;;;8.99;42.58;149556.72;5043112;28;20037;-64
2023/04/20 02:28:32;;;;;;;12.90;6.35;;;;;;;9.02;41.37;149563.16;5060712;28;20025;-65
2023/04/20 02:30:58;;;;;;;11.25;6.20;;;;;;;8.92;42.58;149538.81;5051365;28;20029;-66
2023/04/20 02:33:23;;;;;;;8.75;5.53;;;;;;;8.98;43.10;149554.22;5058540;28;20021;-65
2023/04/20 02:35:49;;;;;;;17.63;7.13;;;;;;;8.88;42.00;149529.88;5042927;28;20033;-65
2023/04/20 02:38:15;;;;;;;15.68;6.90;;;;;;;8.88;42.31;149528.56;5042972;28;20530;-65
2023/04/20 02:40:41;;;;;;;10.50;7.28;;;;;;;8.88;42.63;149528.56;5042996;28;20033;-64
2023/04/20 02:43:06;;;;;;;16.90;7.07;;;;;;;8.89;43.33;149532.44;5056426;28;20036;-65
2023/04/20 02:45:32;;;;;;;13.45;6.60;;;;;;;8.95;42.59;149547.78;5053877;28;20037;-67
2023/04/20 02:47:57;;;;;;;13.68;7.18;;;;;;;8.95;43.28;149547.78;5050657;28;20029;-65
2023/04/20 02:50:23;;;;;;;11.02;7.18;;;;;;;8.78;43.43;149504.25;5067093;28;20052;-64
2023/04/20 02:52:49;;;;;;;15.60;7.20;;;;;;;8.86;44.04;149523.44;5047184;28;20056;-65
2023/04/20 02:55:14;;;;;;;15.07;6.97;;;;;;;8.86;43.38;149524.72;5061299;28;20059;-64
2023/04/20 02:57:40;;;;;;;14.02;6.85;;;;;;;8.85;43.84;149520.88;5056777;28;20057;-65
2023/04/20 03:00:07;;;;;;;13.95;7.70;;;;;;;8.90;43.70;149533.72;5051744;28;20232;-64
2023/04/20 03:02:33;;;;;;;13.80;7.72;;;;;;;8.86;43.60;149523.44;5066114;28;20032;-65
2023/04/20 03:04:58;;;;;;;16.85;7.65;;;;;;;8.88;44.12;149528.56;5046465;28;20075;-65
2023/04/20 03:07:25;;;;;;;13.68;7.35;;;;;;;8.85;43.53;149522.19;5062630;28;20029;-64
2023/04/20 03:09:50;;;;;;;14.95;7.88;;;;;;;8.77;43.95;149501.69;5055099;28;20029;-65
2023/04/20 03:12:17;;;;;;;13.38;7.45;;;;;;;8.96;43.73;149549.06;5052915;28;20092;-64
2023/04/20 03:14:43;;;;;;;16.10;8.10;;;;;;;8.95;44.07;149547.78;5046369;28;20092;-64
2023/04/20 03:17:08;;;;;;;10.57;7.15;;;;;;;9.24;44.27;149619.50;5053102;28;20264;-64
2023/04/20 03:19:35;;;;;;;20.85;7.93;;;;;;;9.50;42.88;149683.56;5049014;28;20067;-64
2023/04/20 03:22:01;;;;;;;14.65;7.10;;;;;;;9.90;42.58;149782.28;5046139;28;20033;-65
2023/04/20 03:24:26;;;;;;;11.00;7.35;;;;;;;9.93;41.33;149791.25;5054121;28;20021;-64
2023/04/20 03:26:52;;;;;;;13.63;7.45;;;;;;;10.04;41.95;149816.88;5062953;28;20080;-64
2023/04/20 03:29:17;;;;;;;13.88;7.38;;;;;;;9.84;42.65;149769.44;5046403;28;20284;-65
2023/04/20 03:31:43;;;;;;;15.50;8.13;;;;;;;10.03;42.35;149815.56;5057137;28;20021;-65
2023/04/20 03:34:09;;;;;;;11.45;7.68;;;;;;;10.49;41.34;149931.03;5054655;28;20032;-65
2023/04/20 03:36:35;;;;;;;13.27;7.32;;;;;;;10.76;41.11;149997.75;5046217;28;20037;-65
2023/04/20 03:39:00;;;;;;;17.42;7.85;;;;;;;11.01;41.05;150059.28;5049837;28;20062;-66
2023/04/20 03:41:26;;;;;;;17.00;7.45;;;;;;;10.96;40.54;150046.44;5065932;28;20079;-66
2023/04/20 03:43:51;;;;;;;16.50;7.65;;;;;;;11.10;40.95;150082.41;5046430;28;20071;-65
2023/04/20 03:46:17;;;;;;;19.80;7.50;;;;;;;11.42;40.00;150160.69;5059158;28;20047;-67
2023/04/20 03:48:43;;;;;;;12.85;8.13;;;;;;;12.00;39.25;150307.03;5055965;28;20025;-66
2023/04/20 03:51:08;;;;;;;13.43;7.68;;;;;;;11.69;39.48;150229.97;5050531;28;20121;-66
2023/04/20 03:53:34;;;;;;;14.13;7.47;;;;;;;11.82;39.74;150262.03;5065910;28;20040;-65
2023/04/20 03:56:00;;;;;;;14.80;7.40;;;;;;;11.66;39.85;150221.00;5045670;28;20038;-65
2023/04/20 03:58:26;;;;;;;13.73;6.75;;;;;;;11.52;40.25;150186.34;5063851;28;20405;-66
2023/04/20 04:00:59;;;;;;;15.82;6.75;;;;;;;11.28;40.51;150126.03;5055161;28;20175;-67
2023/04/20 04:03:25;;;;;;;12.30;7.53;;;;;;;11.19;40.78;150104.22;5052540;28;20213;-65
2023/04/20 04:05:50;;;;;;;13.32;7.00;;;;;;;11.22;40.86;150113.16;5056771;28;20033;-66
2023/04/20 04:08:16;;;;;;;11.30;7.20;;;;;;;11.14;40.83;150091.38;5055186;28;20099;-65
2023/04/20 04:10:41;;;;;;;14.55;7.63;;;;;;;11.18;40.83;150102.91;5054409;28;20028;-66
2023/04/20 04:13:07;;;;;;;13.15;7.80;;;;;;;11.19;41.17;150105.47;5054178;28;20025;-67
2023/04/20 04:15:32;;;;;;;15.63;7.65;;;;;;;11.17;40.52;150100.38;5052917;28;20021;-65
2023/04/20 04:17:58;;;;;;;12.57;6.85;;;;;;;11.22;40.81;150111.91;5052125;28;20314;-65
2023/04/20 04:20:24;;;;;;;11.48;6.68;;;;;;;11.30;41.01;150131.13;5054500;28;20043;-66
2023/04/20 04:22:50;;;;;;;14.00;7.13;;;;;;;11.30;41.17;150132.44;5046422;28;20528;-64
2023/04/20 04:25:17;;;;;;;13.27;7.05;;;;;;;11.29;40.94;150129.88;5043709;28;20222;-65
2023/04/20 04:27:42;;;;;;;10.57;7.05;;;;;;;11.18;41.52;150102.91;5054618;28;20033;-65
2023/04/20 04:30:10;;;;;;;11.75;6.63;;;;;;;11.43;41.29;150164.53;5059661;28;20060;-64
2023/04/20 04:32:36;;;;;;;9.27;7.25;;;;;;;11.44;40.93;150167.06;5058759;28;20083;-66
2023/04/20 04:35:02;;;;;;;13.00;7.00;;;;;;;11.42;41.25;150160.69;5044719;28;20136;-64
2023/04/20 04:37:28;;;;;;;11.43;6.95;;;;;;;11.35;41.54;150145.25;5050006;28;20024;-67
2023/04/20 04:39:54;;;;;;;13.80;7.40;;;;;;;11.34;41.74;150142.72;5053832;28;20027;-67
2023/04/20 04:42:20;;;;;;;11.98;6.82;;;;;;;11.36;41.40;150146.56;5051387;28;20033;-67
2023/04/20 04:44:45;;;;;;;11.02;7.68;;;;;;;11.45;40.90;150169.63;5050812;28;20017;-66
2023/04/20 04:47:11;;;;;;;13.52;7.00;;;;;;;11.61;41.21;150209.41;5056119;28;20230;-66
2023/04/20 04:49:39;;;;;;;15.27;7.10;;;;;;;11.61;41.17;150208.16;5048315;28;20033;-66
2023/04/20 04:52:06;;;;;;;12.80;7.63;;;;;;;11.66;41.45;150222.25;5052296;28;20055;-67
2023/04/20 04:54:31;;;;;;;18.33;7.03;;;;;;;11.75;41.65;150244.09;5055132;28;20032;-67
2023/04/20 04:56:57;;;;;;;11.38;6.47;;;;;;;11.70;40.40;150231.22;5054340;28;20067;-67
2023/04/20 04:59:23;;;;;;;12.55;6.63;;;;;;;11.82;40.77;150260.78;5053771;28;20028;-67
2023/04/20 05:01:49;;;;;;;12.32;7.40;;;;;;;11.95;41.16;150292.91;5050739;28;20044;-66
2023/04/20 05:04:14;;;;;;;12.25;7.07;;;;;;;12.08;40.75;150326.28;5043976;28;20105;-66
2023/04/20 05:06:40;;;;;;;10.52;6.80;;;;;;;12.10;40.51;150331.44;5054486;28;20221;-67
2023/04/20 05:09:05;;;;;;;15.70;7.20;;;;;;;12.20;40.97;150355.81;5043922;28;20277;-65
2023/04/20 05:11:31;;;;;;;15.07;6.80;;;;;;;12.42;40.20;150412.31;5044042;28;20044;-66
2023/04/20 05:13:57;;;;;;;9.75;6.65;;;;;;;12.85;39.74;150517.66;5062775;28;20024;-67
2023/04/20 05:16:22;;;;;;;15.05;6.63;;;;;;;12.94;38.96;150542.06;5049026;28;20044;-67
2023/04/20 05:18:48;;;;;;;12.43;7.05;;;;;;;13.02;38.82;150560.03;5043823;28;20033;-66
2023/04/20 05:21:14;;;;;;;16.83;7.03;;;;;;;13.03;39.49;150563.91;5043825;28;20128;-66
2023/04/20 05:23:40;;;;;;;11.50;7.13;;;;;;;13.04;38.65;150566.47;5044059;28;20025;-68
2023/04/20 05:26:05;;;;;;;10.00;6.57;;;;;;;13.42;38.35;150660.31;5042654;28;20029;-67
2023/04/20 05:28:33;;;;;;;9.40;6.00;;;;;;;13.40;38.49;150656.47;5059628;28;20075;-67
2023/04/20 05:30:59;;;;;;;11.50;6.35;;;;;;;13.43;38.81;150662.91;5054070;28;20039;-65
2023/04/20 05:33:25;;;;;;;10.32;6.18;;;;;;;13.58;37.95;150700.16;5057551;28;20053;-66
2023/04/20 05:35:55;;;;;;;10.43;6.30;;;;;;;14.12;36.59;150835.16;5059406;28;20020;-68
2023/04/20 05:38:21;;;;;;;20.42;6.57;;;;;;;14.57;36.76;150947.06;5044109;28;20048;-66
2023/04/20 05:40:46;;;;;;;7.93;5.80;;;;;;;15.33;35.67;151138.84;5061215;28;20321;-66
2023/04/20 05:43:12;;;;;;;9.30;5.57;;;;;;;15.74;34.50;151240.50;5050640;28;20096;-65
2023/04/20 05:45:38;;;;;;;15.70;5.85;;;;;;;16.16;34.26;151344.81;5051554;28;20029;-67
2023/04/20 05:48:03;;;;;;;12.68;6.28;;;;;;;16.46;33.39;151419.53;5059583;28;20022;-65
2023/04/20 05:50:30;;;;;;;7.82;5.57;;;;;;;16.54;32.82;151440.13;5081408;28;20166;-65
2023/04/20 05:52:56;;;;;;;11.43;5.93;;;;;;;16.64;32.41;151465.91;5045695;28;20044;-67
2023/04/20 05:55:21;;;;;;;8.32;5.40;;;;;;;17.22;32.75;151610.28;5057195;28;20258;-64
2023/04/20 05:57:47;;;;;;;11.70;5.68;;;;;;;17.26;31.67;151620.59;5054001;28;20037;-64
2023/04/20 06:00:15;;;;;;;14.35;5.68;;;;;;;17.00;31.41;151554.84;5047812;28;20032;-65
2023/04/20 06:02:41;;;;;;;9.95;5.18;;;;;;;16.85;31.70;151518.72;5063011;28;20326;-66
2023/04/20 06:05:10;;;;;;;7.72;5.30;;;;;;;17.23;31.08;151614.13;5043298;28;20033;-65
2023/04/20 06:07:37;;;;;;;9.40;5.50;;;;;;;17.46;31.75;151670.84;5058955;28;20044;-65
2023/04/20 06:10:03;;;;;;;7.95;4.97;;;;;;;17.72;31.82;151735.31;5052177;28;20234;-65
2023/04/20 06:12:29;;;;;;;8.63;5.30;;;;;;;17.90;31.81;151780.41;5049648;28;20028;-64
2023/04/20 06:14:58;;;;;;;9.50;5.68;;;;;;;17.46;30.81;151669.53;5060855;28;20171;-66
2023/04/20 06:17:24;;;;;;;8.43;5.18;;;;;;;17.25;31.37;151618.00;5043125;28;20088;-65
2023/04/20 06:19:50;;;;;;;8.80;5.45;;;;;;;17.36;30.63;151646.34;5043245;28;20225;-64
2023/04/20 06:22:15;;;;;;;8.13;5.70;;;;;;;17.62;31.14;151710.81;5050468;28;20029;-67
2023/04/20 06:24:41;;;;;;;10.73;5.45;;;;;;;17.17;31.22;151597.38;5051115;28;20070;-69
2023/04/20 06:27:08;;;;;;;17.45;6.03;;;;;;;17.80;30.99;151755.94;5059130;28;20025;-66
2023/04/20 06:29:33;;;;;;;16.55;5.57;;;;;;;18.11;31.00;151834.63;5043113;28;20041;-67
2023/04/20 06:31:59;;;;;;;12.85;5.55;;;;;;;17.97;30.35;151797.22;5051249;28;20021;-65
2023/04/20 06:34:25;;;;;;;10.55;5.10;;;;;;;18.75;29.57;151994.53;5049525;28;20330;-67
2023/04/20 06:36:51;;;;;;;7.50;5.70;;;;;;;18.46;29.35;151921.03;5050495;28;20095;-69
2023/04/20 06:39:16;;;;;;;9.43;5.68;;;;;;;17.88;29.98;151775.25;5057713;28;20091;-68
2023/04/20 06:41:42;;;;;;;10.95;5.53;;;;;;;18.03;29.25;151814.00;5042383;28;20041;-67
2023/04/20 06:44:08;;;;;;;8.27;5.18;;;;;;;18.49;29.04;151928.78;5041735;28;20092;-68
2023/04/20 06:46:34;;;;;;;7.95;5.13;;;;;;;18.83;29.13;152012.66;5042313;28;20022;-68
2023/04/20 06:48:59;;;;;;;9.98;5.72;;;;;;;18.90;29.42;152032.03;5042123;28;20033;-69
2023/04/20 06:51:28;;;;;;;9.77;4.90;;;;;;;18.69;29.42;151979.06;5048589;28;20179;-69
2023/04/20 06:53:54;;;;;;;7.70;5.72;;;;;;;18.73;29.10;151988.13;5061424;28;20120;-67
2023/04/20 06:56:20;;;;;;;8.48;4.78;;;;;;;18.38;28.77;151901.66;5042504;28;20078;-67
2023/04/20 06:58:47;;;;;;;18.10;5.35;;;;;;;18.02;29.05;151810.13;5059793;28;20104;-66
2023/04/20 07:01:12;;;;;;;8.10;5.03;;;;;;;18.09;28.69;151828.19;5057949;28;20044;-67
2023/04/20 07:03:38;;;;;;;7.38;5.07;;;;;;;18.55;28.53;151944.22;5050025;28;20202;-66
2023/04/20 07:06:06;;;;;;;6.60;5.10;;;;;;;19.61;28.63;152210.13;5062036;28;20047;-66
2023/04/20 07:08:32;;;;;;;7.85;4.78;;;;;;;19.88;26.90;152276.00;5061838;28;20036;-67
2023/04/20 07:10:58;;;;;;;8.38;4.35;;;;;;;19.27;26.59;152123.66;5043856;28;20289;-65
2023/04/20 07:13:23;;;;;;;6.20;4.10;;;;;;;19.76;26.86;152247.53;5054764;28;20025;-65
2023/04/20 07:15:49;;;;;;;6.03;4.35;;;;;;;20.29;26.50;152380.56;5053029;28;20034;-67
2023/04/20 07:18:15;;;;;;;8.05;5.22;;;;;;;21.09;25.32;152580.91;5044833;28;20102;-66
2023/04/20 07:20:41;;;;;;;8.32;4.50;;;;;;;20.66;24.37;152473.63;5062221;28;20094;-65
2023/04/20 07:23:06;;;;;;;7.85;4.55;;;;;;;21.09;24.74;152580.91;5041657;28;20039;-66
2023/04/20 07:25:32;;;;;;;9.77;4.57;;;;;;;22.19;24.74;152856.22;5065760;28;20032;-65
2023/04/20 07:27:57;;;;;;;12.50;4.70;;;;;;;22.36;23.97;152898.97;5072154;28;20025;-67
2023/04/20 07:30:23;;;;;;;6.05;4.47;;;;;;;22.30;23.91;152884.69;5057044;28;20075;-65
2023/04/20 07:32:50;;;;;;;8.00;4.38;;;;;;;20.23;24.77;152363.81;5057550;28;20021;-65
2023/04/20 07:35:16;;;;;;;6.47;3.90;;;;;;;19.24;24.99;152117.19;5056647;28;20512;-65
2023/04/20 07:37:41;;;;;;;8.65;3.67;;;;;;;18.77;25.74;151998.44;5054997;28;20021;-65
2023/04/20 07:40:08;;;;;;;5.55;3.60;;;;;;;18.87;25.39;152022.97;5055207;28;20025;-67
2023/04/20 07:42:35;;;;;;;8.27;4.38;;;;;;;19.22;25.68;152110.75;5054781;28;20018;-65
2023/04/20 07:45:05;;;;;;;4.68;3.58;;;;;;;18.57;26.18;151949.41;5054124;28;20029;-67
2023/04/20 07:47:35;;;;;;;4.65;3.60;;;;;;;18.09;25.70;151829.44;5054471;28;20209;-65
2023/04/20 07:50:02;;;;;;;3.97;3.50;;;;;;;17.84;26.57;151764.94;5056632;28;20051;-66
2023/04/20 07:52:29;;;;;;;4.82;3.60;;;;;;;18.37;25.75;151899.13;5055360;28;20403;-65
2023/04/20 07:54:58;;;;;;;6.57;4.10;;;;;;;18.07;25.90;151824.31;5055488;28;20033;-66
2023/04/20 07:57:27;;;;;;;6.00;3.30;;;;;;;19.04;24.11;152066.88;5055154;28;20029;-64
2023/04/20 07:59:53;;;;;;;7.95;4.15;;;;;;;18.50;23.73;151931.38;5053643;28;20310;-66
2023/04/20 08:02:19;;;;;;;5.28;3.58;;;;;;;17.67;24.91;151723.72;5056023;28;20025;-66
2023/04/20 08:04:45;;;;;;;5.03;3.90;;;;;;;17.69;25.05;151727.56;5055083;28;20073;-67
2023/04/20 08:07:11;;;;;;;4.60;4.20;;;;;;;16.99;26.12;151552.28;5061401;28;20213;-66
2023/04/20 08:09:36;;;;;;;5.60;3.38;;;;;;;17.92;25.55;151786.91;5058489;28;20021;-65
2023/04/20 08:12:02;;;;;;;7.60;4.13;;;;;;;18.46;24.94;151922.31;5045124;28;20041;-65
2023/04/20 08:14:28;;;;;;;7.43;3.78;;;;;;;17.69;24.34;151728.84;5045091;28;20361;-65
2023/04/20 08:16:54;;;;;;;5.07;3.20;;;;;;;17.60;24.25;151705.66;5062475;28;20084;-64
2023/04/20 08:19:19;;;;;;;5.00;3.90;;;;;;;17.79;24.08;151753.34;5052621;28;20044;-64
2023/04/20 08:21:45;;;;;;;4.57;3.40;;;;;;;17.25;24.93;151619.28;5045623;28;20021;-64
2023/04/20 08:24:12;;;;;;;5.22;3.78;;;;;;;17.04;25.75;151566.44;5048644;28;20237;-66
2023/04/20 08:26:38;;;;;;;5.82;3.90;;;;;;;17.72;25.90;151735.31;5064707;28;20032;-65
2023/04/20 08:29:04;;;;;;;4.88;3.35;;;;;;;17.74;24.68;151741.75;5046428;28;20041;-66
2023/04/20 08:31:31;;;;;;;6.40;4.30;;;;;;;18.21;24.54;151859.16;5051173;28;20032;-66
2023/04/20 08:33:56;;;;;;;6.13;3.40;;;;;;;18.45;24.80;151918.44;5049482;28;20017;-65
2023/04/20 08:36:22;;;;;;;5.15;3.42;;;;;;;18.57;24.52;151948.09;5048890;28;20252;-66
2023/04/20 08:39:12;;;;;;;4.95;4.20;;;;;;;17.83;24.71;151762.34;5055294;28;20217;-65
2023/04/20 08:41:38;;;;;;;5.88;3.60;;;;;;;17.41;25.14;151659.25;5052731;28;20025;-66
2023/04/20 08:44:03;;;;;;;5.75;3.80;;;;;;;17.57;25.02;151699.22;5052675;28;20092;-65
2023/04/20 08:46:30;;;;;;;7.43;3.97;;;;;;;17.87;25.17;151773.97;5054275;28;20068;-65
2023/04/20 08:48:56;;;;;;;5.88;3.72;;;;;;;18.22;25.05;151860.41;5055157;28;20029;-66
2023/04/20 08:51:23;;;;;;;5.88;4.00;;;;;;;18.61;25.23;151959.75;5054492;28;20033;-65
2023/04/20 08:53:49;;;;;;;7.10;4.22;;;;;;;18.09;25.38;151829.44;5052426;28;20078;-65
2023/04/20 08:56:14;;;;;;;5.88;3.78;;;;;;;18.55;25.13;151944.22;5054201;28;20064;-66
2023/04/20 08:58:41;;;;;;;6.72;4.10;;;;;;;17.67;26.31;151723.72;5054596;28;20040;-66
2023/04/20 09:01:09;;;;;;;4.45;4.00;;;;;;;17.75;25.76;151744.31;5053612;28;20292;-65
2023/04/20 09:03:39;;;;;;;4.50;4.05;;;;;;;17.64;25.47;151715.94;5053409;28;20021;-66
2023/04/20 09:06:14;;;;;;;7.53;4.75;;;;;;;17.41;26.16;151657.94;5053042;28;20016;-64
2023/04/20 09:08:41;;;;;;;9.48;4.40;;;;;;;17.63;25.99;151712.06;5059677;28;20020;-64
2023/04/20 09:11:23;;;;;;;7.50;4.30;;;;;;;18.57;25.94;151948.09;5049099;28;20045;-67
2023/04/20 09:13:58;;;;;;;4.88;3.50;;;;;;;18.61;24.30;151958.41;5057296;28;20033;-66
2023/04/20 09:16:24;;;;;;;4.78;3.80;;;;;;;19.08;23.60;152075.88;5053222;28;20036;-64
2023/04/20 09:18:57;;;;;;;5.45;3.53;;;;;;;19.10;24.22;152082.34;5051586;28;20036;-66
2023/04/20 09:21:24;;;;;;;4.97;3.67;;;;;;;18.57;24.32;151948.09;5043062;28;20025;-65
2023/04/20 09:24:06;;;;;;;4.63;3.40;;;;;;;18.41;24.04;151909.44;5043972;28;20037;-67
2023/04/20 09:26:33;;;;;;;;;;;;;;;18.87;24.21;152022.97;5051252;28;20322;-66
2023/04/20 09:28:59;;;;;;;7.25;3.75;;;;;;;18.85;23.82;152017.78;5046603;28;19905;-66
2023/04/20 09:31:25;;;;;;;6.15;3.78;;;;;;;19.10;24.27;152081.06;5048553;28;20020;-65
2023/04/20 09:34:03;;;;;;;5.40;3.60;;;;;;;19.10;24.11;152081.06;5055764;28;20072;-65
2023/04/20 09:36:42;;;;;;;5.82;4.05;;;;;;;18.26;24.84;151870.75;5043835;28;20075;-66
2023/04/20 09:39:13;;;;;;;6.57;4.03;;;;;;;18.17;24.18;151848.81;5045697;28;20037;-67
2023/04/20 09:41:39;;;;;;;8.23;3.63;;;;;;;18.34;24.95;151891.38;5063612;28;20536;-66
2023/04/20 09:44:06;;;;;;;7.25;4.00;;;;;;;18.46;25.18;151922.31;5062085;28;20340;-65
2023/04/20 09:46:34;;;;;;;7.25;3.90;;;;;;;18.15;24.53;151842.38;5063455;28;20047;-67
2023/04/20 09:49:03;;;;;;;8.57;4.35;;;;;;;17.92;24.88;151786.91;5054505;28;20076;-65
2023/04/20 09:51:32;;;;;;;7.55;4.07;;;;;;;17.83;25.75;151762.34;5048240;28;20033;-66
2023/04/20 09:54:00;;;;;;;7.03;3.85;;;;;;;17.80;25.48;151754.63;5062393;28;20147;-65
2023/04/20 09:56:26;;;;;;;4.82;3.78;;;;;;;18.02;25.12;151811.41;5043386;28;20041;-66
2023/04/20 09:58:53;;;;;;;4.90;3.80;;;;;;;17.86;24.91;151771.41;5043390;28;20030;-67
2023/04/20 10:01:19;;;;;;;6.05;3.72;;;;;;;17.94;25.03;151792.09;5054937;28;20067;-65
2023/04/20 10:03:45;;;;;;;5.70;3.88;;;;;;;17.73;25.42;151739.16;5056843;28;20030;-67
2023/04/20 10:06:26;;;;;;;6.47;3.75;;;;;;;17.46;25.83;151670.84;5042438;28;20028;-66
2023/04/20 10:08:53;;;;;;;12.35;5.53;;;;;;;17.68;25.54;151724.97;5043516;28;20035;-66
2023/04/20 10:11:29;;;;;;;5.18;3.83;;;;;;;17.71;25.58;151732.72;5062727;28;20099;-67
2023/04/20 10:13:56;;;;;;;6.72;4.07;;;;;;;17.74;25.03;151741.75;5047047;28;20021;-66
2023/04/20 10:16:21;;;;;;;6.50;3.95;;;;;;;17.67;25.36;151723.72;5054773;28;20029;-65
2023/04/20 10:18:56;;;;;;;11.13;4.38;;;;;;;17.66;24.97;151721.13;5056184;28;20053;-66
2023/04/20 10:21:22;;;;;;;7.53;4.00;;;;;;;17.34;24.58;151639.91;5046644;28;20074;-67
2023/04/20 10:23:51;;;;;;;5.38;3.83;;;;;;;17.52;24.95;151686.31;5063194;28;20205;-65
2023/04/20 10:26:17;;;;;;;11.13;4.00;;;;;;;17.27;24.99;151621.88;5043656;28;20068;-66
2023/04/20 10:28:46;;;;;;;10.15;3.92;;;;;;;17.62;25.18;151710.81;5057698;28;20025;-66
2023/04/20 10:31:14;;;;;;;8.35;4.00;;;;;;;17.27;24.55;151623.13;5051696;28;20313;-66
2023/04/20 10:33:55;;;;;;;9.05;4.20;;;;;;;17.37;24.92;151647.63;5043862;28;20321;-66
2023/04/20 10:36:30;;;;;;;6.95;3.72;;;;;;;17.54;24.61;151691.47;5045770;28;20028;-65
2023/04/20 10:39:00;;;;;;;6.38;3.50;;;;;;;17.75;24.00;151744.31;5062304;28;20086;-65
2023/04/20 10:41:26;;;;;;;5.28;3.67;;;;;;;17.21;24.71;151607.69;5042965;28;20025;-66
2023/04/20 10:43:51;;;;;;;8.15;4.10;;;;;;;17.64;25.29;151715.94;5059025;28;20048;-67
2023/04/20 10:46:20;;;;;;;8.23;3.85;;;;;;;17.96;25.58;151795.94;5062596;28;20041;-66
2023/04/20 10:48:56;;;;;;;6.85;4.15;;;;;;;18.25;25.45;151868.16;5055813;28;20078;-67
2023/04/20 10:51:23;;;;;;;9.10;4.00;;;;;;;18.47;24.59;151923.63;5046146;28;20032;-66
2023/04/20 10:54:06;;;;;;;8.10;4.30;;;;;;;18.25;25.12;151869.41;5062962;28;20044;-66
2023/04/20 10:56:40;;;;;;;9.48;4.30;;;;;;;18.02;25.05;151811.41;5042848;28;20322;-67
2023/04/20 10:59:12;;;;;;;4.55;3.72;;;;;;;17.65;25.08;151718.53;5059744;28;20029;-66
2023/04/20 11:01:38;;;;;;;6.93;3.85;;;;;;;17.98;24.92;151799.81;5062248;28;20056;-66
2023/04/20 11:04:04;;;;;;;10.63;4.30;;;;;;;18.24;24.53;151865.56;5055805;28;20227;-66
2023/04/20 11:06:30;;;;;;;10.60;3.67;;;;;;;18.14;24.46;151841.03;5058150;28;20064;-67
2023/04/20 11:08:56;;;;;;;11.02;3.95;;;;;;;18.27;24.67;151874.59;5046089;28;20037;-65
2023/04/20 11:11:27;;;;;;;5.55;4.07;;;;;;;17.86;24.84;151770.13;5066055;28;20313;-66
2023/04/20 11:14:09;;;;;;;5.43;3.78;;;;;;;18.13;24.98;151837.19;5051066;28;20038;-66
2023/04/20 11:16:35;;;;;;;5.57;3.65;;;;;;;18.20;25.99;151856.56;5059490;28;20029;-67
2023/04/20 11:19:02;;;;;;;19.15;5.07;;;;;;;18.10;27.13;151832.03;5066352;28;20053;-66